Time;durP1;ratioP1;P1;durP2;ratioP2;P2;SDS_P1;SDS_P2;PMS_P1;PMS_P2;Temp;Humidity;BMP_temperature;BMP_pressure;BME280_temperature;BME280_humidity;BME280_pressure;Samples;Min_cycle;Max_cycle;Signal;HPM_P1;HPM_P2
2022/04/27 00:00:21;;;;;;;16.15;7.80;;;;;;;;;;5075378;28;20040;-61
2022/04/27 00:02:47;;;;;;;14.48;7.88;;;;;;;;;;5075140;28;20048;-61
2022/04/27 00:05:13;;;;;;;15.10;6.85;;;;;;;;;;5074736;28;20037;-61
2022/04/27 00:07:39;;;;;;;12.23;6.00;;;;;;;;;;5075142;28;20036;-61
2022/04/27 00:10:06;;;;;;;12.48;6.18;;;;;;;;;;5075042;28;20538;-61
2022/04/27 00:12:32;;;;;;;10.25;6.45;;;;;;;;;;5075048;28;20028;-61
2022/04/27 00:14:58;;;;;;;14.23;6.55;;;;;;;;;;5074905;28;20024;-61
2022/04/27 00:17:24;;;;;;;12.57;6.00;;;;;;;;;;5074488;28;20048;-61
2022/04/27 00:19:50;;;;;;;11.68;6.28;;;;;;;;;;5074841;28;20036;-62
2022/04/27 00:22:16;;;;;;;8.95;5.60;;;;;;;;;;5074866;28;20044;-61
2022/04/27 00:24:42;;;;;;;10.07;6.03;;;;;;;;;;5074748;28;20089;-61
2022/04/27 00:27:08;;;;;;;14.68;7.38;;;;;;;;;;5074451;28;20036;-61
2022/04/27 00:29:34;;;;;;;9.73;5.75;;;;;;;;;;5074433;28;20392;-61
2022/04/27 00:32:01;;;;;;;15.60;6.57;;;;;;;;;;5074479;28;20147;-61
2022/04/27 00:34:27;;;;;;;13.07;6.07;;;;;;;;;;5074285;28;20028;-62
2022/04/27 00:36:53;;;;;;;8.13;5.53;;;;;;;;;;5074005;28;20041;-61
2022/04/27 00:39:19;;;;;;;11.50;5.50;;;;;;;;;;5074440;28;20037;-61
2022/04/27 00:42:00;;;;;;;11.93;5.05;;;;;;;;;;5074000;28;20043;-61
2022/04/27 00:44:31;;;;;;;7.57;5.07;;;;;;;;;;5074461;28;20025;-61
2022/04/27 00:46:57;;;;;;;12.07;5.07;;;;;;;;;;5074224;28;20040;-61
2022/04/27 00:49:23;;;;;;;7.45;4.88;;;;;;;;;;5073926;28;20135;-61
2022/04/27 00:51:50;;;;;;;10.32;5.32;;;;;;;;;;5073732;28;20094;-60
2022/04/27 00:54:18;;;;;;;6.78;4.97;;;;;;;;;;5073840;28;20037;-61
2022/04/27 00:56:44;;;;;;;10.02;5.43;;;;;;;;;;5073726;28;20544;-61
2022/04/27 00:59:10;;;;;;;7.28;5.63;;;;;;;;;;5071307;28;20128;-61
2022/04/27 01:01:36;;;;;;;7.13;5.68;;;;;;;;;;5071061;28;20072;-61
2022/04/27 01:04:05;;;;;;;6.78;5.50;;;;;;;;;;5071589;28;20052;-61
2022/04/27 01:06:31;;;;;;;8.60;6.40;;;;;;;;;;5073585;28;20083;-62
2022/04/27 01:08:57;;;;;;;10.48;6.70;;;;;;;;;;5073640;28;20392;-62
2022/04/27 01:11:23;;;;;;;10.13;6.13;;;;;;;;;;5073966;28;20098;-61
2022/04/27 01:13:49;;;;;;;11.27;6.32;;;;;;;;;;5073097;28;20033;-61
2022/04/27 01:16:16;;;;;;;9.65;7.07;;;;;;;;;;5073324;28;20160;-61
2022/04/27 01:18:42;;;;;;;11.50;7.07;;;;;;;;;;5073295;28;20052;-61
2022/04/27 01:21:08;;;;;;;10.40;6.93;;;;;;;;;;5073202;28;20048;-61
2022/04/27 01:23:34;;;;;;;10.70;7.15;;;;;;;;;;5073132;28;20485;-61
2022/04/27 01:26:05;;;;;;;11.70;6.50;;;;;;;;;;5073265;28;20469;-62
2022/04/27 01:28:31;;;;;;;12.40;7.00;;;;;;;;;;5073266;28;20029;-61
2022/04/27 01:30:58;;;;;;;14.90;7.80;;;;;;;;;;5073214;28;20123;-61
2022/04/27 01:33:25;;;;;;;12.45;7.18;;;;;;;;;;5073310;28;20079;-61
2022/04/27 01:35:51;;;;;;;11.55;8.15;;;;;;;;;;5072938;28;20064;-62
2022/04/27 01:38:17;;;;;;;9.35;7.80;;;;;;;;;;5073084;28;20055;-61
2022/04/27 01:40:44;;;;;;;9.77;8.30;;;;;;;;;;5073027;28;20037;-61
2022/04/27 01:43:10;;;;;;;12.82;7.97;;;;;;;;;;5073220;28;20039;-61
2022/04/27 01:45:36;;;;;;;9.50;7.85;;;;;;;;;;5073096;28;20078;-61
2022/04/27 01:48:03;;;;;;;8.35;7.22;;;;;;;;;;5072887;28;20039;-61
2022/04/27 01:50:29;;;;;;;9.75;7.45;;;;;;;;;;5072926;28;20036;-62
2022/04/27 01:55:40;;;;;;;9.95;7.13;;;;;;;;;;5072738;28;20535;-61
2022/04/27 01:58:06;;;;;;;6.38;5.47;;;;;;;;;;5073028;28;20044;-61
2022/04/27 02:00:33;;;;;;;9.90;5.82;;;;;;;;;;5072803;28;20033;-62
2022/04/27 02:02:59;;;;;;;6.78;5.10;;;;;;;;;;5072535;28;20067;-61
2022/04/27 02:05:26;;;;;;;7.55;4.50;;;;;;;;;;5072622;28;20039;-61
2022/04/27 02:07:52;;;;;;;7.43;4.20;;;;;;;;;;5087945;28;20043;-62
2022/04/27 02:10:18;;;;;;;6.85;3.78;;;;;;;;;;5072687;28;20032;-61
2022/04/27 02:12:44;;;;;;;7.03;3.53;;;;;;;;;;5072784;28;20036;-61
2022/04/27 02:15:10;;;;;;;7.05;3.15;;;;;;;;;;5072456;28;20037;-62
2022/04/27 02:17:36;;;;;;;4.43;3.30;;;;;;;;;;5072372;28;20068;-61
2022/04/27 02:20:04;;;;;;;7.97;2.78;;;;;;;;;;5072258;28;20495;-61
2022/04/27 02:22:32;;;;;;;4.85;1.30;;;;;;;;;;5072764;28;20048;-61
2022/04/27 02:24:58;;;;;;;10.13;1.90;;;;;;;;;;5072928;28;20037;-61
2022/04/27 02:27:24;;;;;;;3.40;1.70;;;;;;;;;;5072647;28;20170;-61
2022/04/27 02:29:50;;;;;;;2.88;1.58;;;;;;;;;;5072661;28;20044;-61
2022/04/27 02:32:18;;;;;;;4.47;1.80;;;;;;;;;;5072816;28;20047;-61
2022/04/27 02:34:44;;;;;;;10.13;2.10;;;;;;;;;;5072312;28;20043;-61
2022/04/27 02:37:10;;;;;;;3.10;1.60;;;;;;;;;;5072742;28;20456;-61
2022/04/27 02:39:36;;;;;;;3.15;1.60;;;;;;;;;;5072649;28;20032;-61
2022/04/27 02:42:03;;;;;;;2.92;1.30;;;;;;;;;;5072788;28;20098;-61
2022/04/27 02:44:29;;;;;;;6.70;1.00;;;;;;;;;;5072669;28;20063;-61
2022/04/27 02:46:55;;;;;;;2.50;0.90;;;;;;;;;;5072265;28;20040;-61
2022/04/27 02:52:06;;;;;;;2.10;0.60;;;;;;;;;;5072519;28;20098;-61
2022/04/27 02:54:32;;;;;;;2.83;0.60;;;;;;;;;;5072499;28;20029;-61
2022/04/27 02:56:58;;;;;;;2.17;0.70;;;;;;;;;;5072180;28;20546;-62
2022/04/27 02:59:24;;;;;;;5.00;0.40;;;;;;;;;;5072279;28;20055;-61
2022/04/27 03:01:50;;;;;;;3.75;0.47;;;;;;;;;;5072212;28;20039;-65
2022/04/27 03:04:16;;;;;;;0.93;0.40;;;;;;;;;;5072168;28;20496;-61
2022/04/27 03:06:42;;;;;;;3.20;0.43;;;;;;;;;;5072207;28;20040;-61
2022/04/27 03:09:08;;;;;;;2.65;0.50;;;;;;;;;;5072147;28;20029;-61
2022/04/27 03:11:34;;;;;;;1.60;0.40;;;;;;;;;;5072299;28;20032;-61
2022/04/27 03:14:00;;;;;;;0.60;0.40;;;;;;;;;;5072181;28;20032;-61
2022/04/27 03:16:27;;;;;;;0.77;0.40;;;;;;;;;;5071932;28;20036;-61
2022/04/27 03:18:53;;;;;;;1.80;0.52;;;;;;;;;;5072442;28;20032;-61
2022/04/27 03:21:19;;;;;;;0.70;0.50;;;;;;;;;;5072563;28;20473;-61
2022/04/27 03:23:45;;;;;;;0.98;0.50;;;;;;;;;;5072174;28;20040;-61
2022/04/27 03:26:11;;;;;;;2.67;0.63;;;;;;;;;;5072179;28;20031;-61
2022/04/27 03:28:37;;;;;;;1.88;0.70;;;;;;;;;;5072008;28;20118;-61
2022/04/27 03:31:03;;;;;;;1.05;0.50;;;;;;;;;;5072252;28;20029;-60
2022/04/27 03:33:29;;;;;;;3.85;0.70;;;;;;;;;;5073065;28;20442;-61
2022/04/27 03:35:55;;;;;;;2.08;0.60;;;;;;;;;;5075703;28;20032;-61
2022/04/27 03:38:21;;;;;;;3.50;0.52;;;;;;;;;;5075497;28;20072;-61
2022/04/27 03:40:47;;;;;;;4.55;0.70;;;;;;;;;;5075621;28;20032;-61
2022/04/27 03:43:14;;;;;;;2.65;0.70;;;;;;;;;;5075066;28;20067;-61
2022/04/27 03:45:41;;;;;;;7.43;0.80;;;;;;;;;;5075673;28;20032;-61
2022/04/27 03:48:07;;;;;;;2.78;1.13;;;;;;;;;;5075461;28;20064;-61
2022/04/27 03:50:33;;;;;;;1.20;0.70;;;;;;;;;;5075077;28;20040;-61
2022/04/27 03:53:00;;;;;;;1.63;0.88;;;;;;;;;;5075126;28;20048;-60
2022/04/27 03:55:28;;;;;;;1.25;0.50;;;;;;;;;;5074832;28;20104;-62
2022/04/27 03:57:54;;;;;;;3.83;0.60;;;;;;;;;;5074746;28;20048;-60
2022/04/27 04:00:20;;;;;;;4.32;0.55;;;;;;;;;;5075244;28;20504;-60
2022/04/27 04:02:47;;;;;;;3.10;0.50;;;;;;;;;;5075083;28;20131;-61
2022/04/27 04:05:13;;;;;;;3.10;0.50;;;;;;;;;;5075074;28;20036;-60
2022/04/27 04:07:39;;;;;;;2.38;0.70;;;;;;;;;;5074990;28;20029;-61
2022/04/27 04:10:06;;;;;;;3.30;0.60;;;;;;;;;;5074766;28;20025;-60
2022/04/27 04:12:32;;;;;;;1.42;0.50;;;;;;;;;;5074707;28;20045;-60
2022/04/27 04:14:58;;;;;;;1.60;0.60;;;;;;;;;;5074377;28;20075;-60
2022/04/27 04:17:24;;;;;;;2.15;0.55;;;;;;;;;;5074833;28;20052;-60
2022/04/27 04:19:50;;;;;;;3.30;0.50;;;;;;;;;;5074912;28;20028;-61
2022/04/27 04:22:16;;;;;;;2.70;0.60;;;;;;;;;;5074655;28;20028;-60
2022/04/27 04:30:12;;;;;;;2.80;0.70;;;;;;;;;;5074646;28;20102;-60
2022/04/27 04:32:38;;;;;;;2.08;0.60;;;;;;;;;;5074509;28;20082;-60
2022/04/27 04:35:05;;;;;;;0.75;0.47;;;;;;;;;;5074366;28;20041;-60
2022/04/27 04:37:32;;;;;;;2.88;0.70;;;;;;;;;;5074058;28;20489;-60
2022/04/27 04:39:58;;;;;;;1.90;0.80;;;;;;;;;;5074244;28;20033;-61
2022/04/27 04:42:24;;;;;;;5.20;1.05;;;;;;;;;;5073956;28;20103;-61
2022/04/27 04:44:50;;;;;;;0.43;0.40;;;;;;;;;;5074015;28;20040;-61
2022/04/27 04:47:16;;;;;;;2.17;0.50;;;;;;;;;;5074247;28;20090;-61
2022/04/27 04:49:42;;;;;;;7.50;0.60;;;;;;;;;;5074020;28;20040;-60
2022/04/27 04:52:08;;;;;;;1.40;0.85;;;;;;;;;;5073902;28;20473;-64
2022/04/27 04:54:35;;;;;;;3.13;0.70;;;;;;;;;;5073809;28;20065;-60
2022/04/27 04:57:01;;;;;;;3.33;0.88;;;;;;;;;;5073963;28;20122;-60
2022/04/27 04:59:27;;;;;;;0.70;0.60;;;;;;;;;;5073982;28;20091;-61
2022/04/27 05:01:53;;;;;;;3.03;0.80;;;;;;;;;;5073974;28;20472;-60
2022/04/27 05:04:19;;;;;;;1.45;0.65;;;;;;;;;;5073688;28;20028;-60
2022/04/27 05:06:47;;;;;;;6.68;0.70;;;;;;;;;;5073664;28;20035;-60
2022/04/27 05:09:13;;;;;;;3.58;0.57;;;;;;;;;;5073993;28;20055;-60
2022/04/27 05:11:39;;;;;;;1.27;0.70;;;;;;;;;;5073751;28;20067;-60
2022/04/27 05:14:05;;;;;;;0.73;0.60;;;;;;;;;;5073586;28;20442;-61
2022/04/27 05:16:33;;;;;;;1.63;0.70;;;;;;;;;;5073580;28;20079;-60
2022/04/27 05:18:59;;;;;;;1.00;0.60;;;;;;;;;;5073387;28;20087;-61
2022/04/27 05:21:25;;;;;;;2.47;0.63;;;;;;;;;;5073324;28;20538;-60
2022/04/27 05:23:51;;;;;;;2.38;0.63;;;;;;;;;;5073608;28;20028;-60
2022/04/27 05:26:17;;;;;;;3.90;0.80;;;;;;;;;;5073404;28;20086;-60
2022/04/27 05:34:12;;;;;;;0.93;0.60;;;;;;;;;;5073203;28;20569;-61
2022/04/27 05:36:38;;;;;;;3.85;0.90;;;;;;;;;;5072882;28;20124;-60
2022/04/27 05:39:04;;;;;;;4.63;0.77;;;;;;;;;;5073241;28;20405;-60
2022/04/27 05:41:30;;;;;;;1.13;0.68;;;;;;;;;;5073166;28;20033;-60
2022/04/27 05:43:56;;;;;;;4.82;0.90;;;;;;;;;;5072785;28;20035;-60
2022/04/27 05:46:22;;;;;;;1.35;1.00;;;;;;;;;;5073123;28;20041;-60
2022/04/27 05:48:48;;;;;;;4.90;0.60;;;;;;;;;;5073058;28;20044;-60
2022/04/27 05:51:14;;;;;;;1.25;0.80;;;;;;;;;;5073146;28;20041;-61
2022/04/27 05:53:41;;;;;;;1.70;0.70;;;;;;;;;;5072321;28;20137;-61
2022/04/27 05:56:07;;;;;;;2.72;0.80;;;;;;;;;;5071656;28;20063;-61
2022/04/27 05:58:34;;;;;;;3.53;0.70;;;;;;;;;;5072778;28;20139;-60
2022/04/27 06:01:00;;;;;;;2.17;0.60;;;;;;;;;;5072990;28;20036;-61
2022/04/27 06:03:26;;;;;;;2.88;0.40;;;;;;;;;;5070680;28;20032;-60
2022/04/27 06:05:52;;;;;;;1.15;0.57;;;;;;;;;;5072025;28;20029;-63
2022/04/27 06:08:18;;;;;;;2.80;0.70;;;;;;;;;;5071405;28;20036;-64
2022/04/27 06:10:44;;;;;;;1.58;0.70;;;;;;;;;;5072237;28;20032;-63
2022/04/27 06:13:10;;;;;;;2.25;0.73;;;;;;;;;;5081387;28;20039;-63
2022/04/27 06:15:36;;;;;;;0.60;0.40;;;;;;;;;;5092457;28;20064;-62
2022/04/27 06:18:02;;;;;;;5.03;1.70;;;;;;;;;;5085570;28;20040;-67
2022/04/27 06:20:28;;;;;;;4.60;0.60;;;;;;;;;;5065614;28;20057;-64
2022/04/27 06:22:56;;;;;;;3.25;0.65;;;;;;;;;;5052607;28;20029;-67
2022/04/27 06:25:22;;;;;;;1.30;0.70;;;;;;;;;;5052366;28;20040;-66
2022/04/27 06:27:48;;;;;;;0.93;0.63;;;;;;;;;;5052234;28;20037;-70
2022/04/27 06:30:14;;;;;;;0.50;0.50;;;;;;;;;;5052576;28;20116;-67
2022/04/27 06:32:40;;;;;;;2.40;0.70;;;;;;;;;;5052674;28;20038;-67
2022/04/27 06:35:09;;;;;;;3.50;0.60;;;;;;;;;;5052712;28;20033;-63
2022/04/27 06:37:35;;;;;;;2.85;0.50;;;;;;;;;;5052033;28;20052;-68
2022/04/27 06:40:01;;;;;;;0.70;0.60;;;;;;;;;;5052889;28;20033;-63
2022/04/27 06:42:27;;;;;;;0.80;0.50;;;;;;;;;;5052195;28;20033;-65
2022/04/27 06:44:53;;;;;;;1.08;0.75;;;;;;;;;;5051875;28;20122;-69
2022/04/27 06:47:19;;;;;;;1.75;0.60;;;;;;;;;;5050919;28;20044;-66
2022/04/27 06:49:45;;;;;;;3.80;0.65;;;;;;;;;;5051909;28;20049;-66
2022/04/27 06:52:11;;;;;;;15.35;1.30;;;;;;;;;;5052038;28;20505;-67
2022/04/27 06:54:37;;;;;;;2.58;0.60;;;;;;;;;;5070732;28;20028;-68
2022/04/27 06:57:03;;;;;;;1.98;0.60;;;;;;;;;;5064709;28;20048;-66
2022/04/27 06:59:29;;;;;;;0.70;0.50;;;;;;;;;;5053876;28;20025;-67
2022/04/27 07:01:55;;;;;;;1.30;0.75;;;;;;;;;;5052323;28;20116;-66
2022/04/27 07:04:22;;;;;;;2.08;0.52;;;;;;;;;;5071264;28;20036;-66
2022/04/27 07:06:48;;;;;;;0.50;0.40;;;;;;;;;;5073392;28;20433;-66
2022/04/27 07:09:14;;;;;;;0.85;0.50;;;;;;;;;;5076240;28;20055;-67
2022/04/27 07:11:40;;;;;;;3.15;0.93;;;;;;;;;;5075419;28;20041;-67
2022/04/27 07:14:06;;;;;;;0.85;0.50;;;;;;;;;;5072880;28;20060;-66
2022/04/27 07:16:32;;;;;;;0.98;0.50;;;;;;;;;;5075369;28;20119;-69
2022/04/27 07:18:58;;;;;;;1.50;0.50;;;;;;;;;;5075574;28;20433;-70
2022/04/27 07:21:24;;;;;;;1.13;0.60;;;;;;;;;;5075519;28;20036;-70
2022/04/27 07:23:50;;;;;;;0.80;0.50;;;;;;;;;;5075792;28;20505;-69
2022/04/27 07:26:17;;;;;;;1.02;0.60;;;;;;;;;;5075640;28;20068;-69
2022/04/27 07:28:43;;;;;;;1.83;0.57;;;;;;;;;;5075402;28;20043;-69
2022/04/27 07:31:09;;;;;;;3.50;0.70;;;;;;;;;;5073779;28;20030;-69
2022/04/27 07:33:35;;;;;;;1.80;0.60;;;;;;;;;;5075415;28;20313;-72
2022/04/27 07:36:01;;;;;;;0.70;0.50;;;;;;;;;;5075225;28;20029;-69
2022/04/27 07:38:27;;;;;;;0.95;0.50;;;;;;;;;;5074524;28;20119;-68
2022/04/27 07:40:53;;;;;;;1.25;0.70;;;;;;;;;;5074356;28;20028;-68
2022/04/27 07:43:20;;;;;;;2.78;1.25;;;;;;;;;;5075044;28;20125;-69
2022/04/27 07:45:46;;;;;;;1.15;0.60;;;;;;;;;;5074465;28;20044;-69
2022/04/27 07:48:12;;;;;;;1.50;0.63;;;;;;;;;;5070700;28;20033;-69
2022/04/27 07:50:39;;;;;;;1.27;0.40;;;;;;;;;;5072474;28;20044;-69
2022/04/27 07:53:05;;;;;;;1.55;0.40;;;;;;;;;;5074621;28;20452;-68
2022/04/27 07:55:31;;;;;;;0.63;0.43;;;;;;;;;;5075256;28;20039;-68
2022/04/27 07:57:57;;;;;;;0.70;0.40;;;;;;;;;;5075550;28;20115;-69
2022/04/27 08:00:23;;;;;;;1.17;0.40;;;;;;;;;;5075596;28;20028;-69
2022/04/27 08:02:49;;;;;;;1.30;0.50;;;;;;;;;;5075122;28;20082;-69
2022/04/27 08:05:18;;;;;;;0.50;0.40;;;;;;;;;;5074927;28;20119;-69
2022/04/27 08:07:48;;;;;;;1.30;0.50;;;;;;;;;;5075179;28;20041;-70
2022/04/27 08:10:15;;;;;;;1.83;0.63;;;;;;;;;;5075356;28;20388;-68
2022/04/27 08:12:44;;;;;;;1.63;0.50;;;;;;;;;;5074953;28;20044;-69
2022/04/27 08:15:10;;;;;;;0.95;0.43;;;;;;;;;;5075123;28;20036;-69
2022/04/27 08:17:36;;;;;;;0.95;0.35;;;;;;;;;;5074564;28;20056;-68
2022/04/27 08:22:47;;;;;;;1.10;0.57;;;;;;;;;;5075217;28;20109;-68
2022/04/27 08:25:13;;;;;;;1.27;0.40;;;;;;;;;;5075128;28;20032;-69
2022/04/27 08:27:39;;;;;;;0.98;0.50;;;;;;;;;;5074928;28;20039;-68
2022/04/27 08:30:06;;;;;;;1.88;0.50;;;;;;;;;;5074828;28;20040;-68
2022/04/27 08:32:32;;;;;;;1.55;0.50;;;;;;;;;;5074759;28;20047;-69
2022/04/27 08:34:58;;;;;;;0.65;0.40;;;;;;;;;;5075090;28;20174;-68
2022/04/27 08:37:24;;;;;;;0.35;0.30;;;;;;;;;;5070033;28;20116;-68
2022/04/27 08:39:51;;;;;;;1.85;0.40;;;;;;;;;;5054542;28;20112;-69
2022/04/27 08:42:17;;;;;;;0.70;0.60;;;;;;;;;;5054580;28;20070;-70
2022/04/27 08:44:43;;;;;;;1.35;0.40;;;;;;;;;;5054251;28;20043;-69
2022/04/27 08:47:09;;;;;;;1.33;0.50;;;;;;;;;;5054336;28;20037;-69
2022/04/27 08:49:36;;;;;;;0.60;0.43;;;;;;;;;;5054031;28;20073;-68
2022/04/27 08:52:02;;;;;;;0.63;0.50;;;;;;;;;;5054556;28;20033;-69
2022/04/27 08:54:28;;;;;;;1.65;0.40;;;;;;;;;;5054297;28;20091;-69
2022/04/27 08:56:54;;;;;;;2.85;0.50;;;;;;;;;;5054042;28;20076;-69
2022/04/27 08:59:20;;;;;;;2.13;0.60;;;;;;;;;;5054611;28;20062;-69
2022/04/27 09:01:46;;;;;;;1.23;0.47;;;;;;;;;;5054131;28;20072;-69
2022/04/27 09:04:14;;;;;;;1.02;0.60;;;;;;;;;;5054213;28;20033;-68
2022/04/27 09:06:41;;;;;;;1.05;0.50;;;;;;;;;;5054107;28;20033;-69
2022/04/27 09:09:13;;;;;;;1.55;0.45;;;;;;;;;;5054066;28;20123;-69
2022/04/27 09:11:39;;;;;;;0.47;0.38;;;;;;;;;;5053564;28;20033;-71
2022/04/27 09:14:09;;;;;;;0.77;0.50;;;;;;;;;;5052848;28;20044;-69
2022/04/27 09:22:07;;;;;;;0.65;0.50;;;;;;;;;;5053684;28;20095;-69
2022/04/27 09:24:52;;;;;;;3.22;0.70;;;;;;;;;;5053653;28;20433;-69
2022/04/27 09:27:23;;;;;;;1.20;0.50;;;;;;;;;;5053486;28;20041;-69
2022/04/27 09:29:58;;;;;;;2.10;0.40;;;;;;;;;;5052703;28;20033;-68
2022/04/27 09:32:24;;;;;;;1.40;0.40;;;;;;;;;;5053295;28;20083;-68
2022/04/27 09:34:50;;;;;;;2.25;0.60;;;;;;;;;;5060963;28;20036;-68
2022/04/27 09:37:17;;;;;;;4.78;0.60;;;;;;;;;;5072823;28;20084;-68
2022/04/27 09:39:44;;;;;;;27.25;3.03;;;;;;;;;;5073620;28;20036;-65
2022/04/27 09:42:10;;;;;;;2.28;0.40;;;;;;;;;;5073241;28;20071;-65
2022/04/27 09:44:38;;;;;;;1.90;0.55;;;;;;;;;;5073016;28;20465;-65
2022/04/27 09:47:04;;;;;;;0.90;0.47;;;;;;;;;;5073170;28;20078;-65
2022/04/27 09:49:31;;;;;;;3.05;0.80;;;;;;;;;;5072993;28;20458;-68
2022/04/27 09:51:58;;;;;;;2.80;0.50;;;;;;;;;;5072925;28;20115;-65
2022/04/27 09:54:25;;;;;;;2.58;0.57;;;;;;;;;;5072899;28;20044;-65
2022/04/27 09:56:51;;;;;;;2.92;0.60;;;;;;;;;;5072985;28;20033;-65
2022/04/27 09:59:19;;;;;;;0.82;0.40;;;;;;;;;;5073370;28;20032;-65
2022/04/27 10:01:46;;;;;;;0.40;0.40;;;;;;;;;;5073012;28;20036;-65
2022/04/27 10:04:12;;;;;;;3.53;0.80;;;;;;;;;;5073017;28;20032;-66
2022/04/27 10:06:38;;;;;;;1.05;0.70;;;;;;;;;;5072776;28;20115;-64
2022/04/27 10:09:05;;;;;;;7.93;0.60;;;;;;;;;;5073088;28;20036;-65
2022/04/27 10:11:32;;;;;;;0.95;0.63;;;;;;;;;;5072987;28;20037;-65
2022/04/27 10:13:58;;;;;;;109.15;4.90;;;14.50;81.10;;;;;;5073016;28;20033;-66
2022/04/27 10:16:25;;;;;;;6.88;0.80;;;17.60;58.00;;;;;;5072904;28;20116;-65
2022/04/27 10:18:54;;;;;;;52.55;3.10;;;17.70;59.50;;;;;;5072832;28;20044;-62
2022/04/27 10:21:58;;;;;;;22.08;1.30;;;17.80;59.60;;;;;;5073008;28;20032;-65
2022/04/27 10:24:49;;;;;;;1.85;0.50;;;18.00;58.70;;;;;;5072975;28;20492;-65
2022/04/27 10:27:23;;;;;;;3.28;0.60;;;18.10;58.80;;;;;;5072490;28;20101;-66
2022/04/27 10:29:50;;;;;;;4.30;1.00;;;18.30;57.50;;;;;;5072476;28;20056;-66
2022/04/27 10:32:33;;;;;;;2.97;1.48;;;18.40;58.10;;;;;;5072535;28;20531;-66
2022/04/27 10:35:17;;;;;;;0.43;0.43;;;18.50;57.30;;;;;;5072910;28;20068;-66
2022/04/27 10:37:51;;;;;;;2.30;0.50;;;18.60;56.40;;;;;;5072499;28;20043;-66
2022/04/27 10:40:43;;;;;;;0.73;0.55;;;18.70;55.60;;;;;;5072142;28;20565;-66
2022/04/27 10:43:15;;;;;;;2.05;0.77;;;18.80;56.40;;;;;;5076361;28;20032;-66
2022/04/27 10:45:43;;;;;;;0.98;0.50;;;18.90;53.70;;;;;;5076702;28;20118;-66
2022/04/27 10:48:24;;;;;;;2.97;0.52;;;18.80;51.50;;;;;;5076526;28;20040;-66
2022/04/27 10:51:07;;;;;;;2.30;0.50;;;18.80;51.40;;;;;;5076481;28;20412;-66
2022/04/27 10:53:40;;;;;;;2.78;0.60;;;18.70;54.10;;;;;;5076172;28;20075;-66
2022/04/27 10:56:22;;;;;;;0.68;0.52;;;18.70;53.20;;;;;;5074290;28;20070;-66
2022/04/27 10:58:48;;;;;;;1.25;0.60;;;18.80;53.60;;;;;;5073577;28;20079;-66
2022/04/27 11:01:18;;;;;;;1.85;0.60;;;18.80;52.50;;;;;;5076325;28;20068;-66
2022/04/27 11:03:52;;;;;;;2.28;0.50;;;18.80;50.70;;;;;;5076210;28;20033;-67
2022/04/27 11:06:19;;;;;;;2.00;0.70;;;18.90;52.70;;;;;;5076222;28;20116;-66
2022/04/27 11:09:10;;;;;;;0.50;0.40;;;18.90;53.80;;;;;;5076314;28;20032;-66
2022/04/27 11:11:50;;;;;;;0.63;0.40;;;19.00;51.40;;;;;;5076372;28;20056;-66
2022/04/27 11:14:16;;;;;;;2.58;0.50;;;19.00;51.70;;;;;;5074973;28;20389;-66
2022/04/27 11:16:50;;;;;;;1.58;0.60;;;19.00;51.80;;;;;;5075731;28;20037;-66
2022/04/27 11:19:16;;;;;;;2.08;0.60;;;19.00;51.90;;;;;;5075868;28;20039;-66
2022/04/27 11:21:42;;;;;;;2.03;0.60;;;19.10;51.40;;;;;;5075977;28;20033;-66
2022/04/27 11:24:11;;;;;;;0.60;0.60;;;19.20;51.00;;;;;;5075988;28;20042;-66
2022/04/27 11:26:44;;;;;;;0.65;0.60;;;19.20;50.80;;;;;;5075365;28;20094;-66
2022/04/27 11:29:15;;;;;;;0.80;0.50;;;19.20;51.50;;;;;;5075717;28;20041;-67
2022/04/27 11:31:43;;;;;;;0.80;0.50;;;19.30;50.70;;;;;;5075644;28;20123;-67
2022/04/27 11:34:26;;;;;;;1.08;0.63;;;19.30;49.70;;;;;;5075726;28;20032;-67
2022/04/27 11:36:53;;;;;;;0.80;0.63;;;19.40;51.40;;;;;;5075511;28;20143;-67
2022/04/27 11:39:24;;;;;;;2.55;0.52;;;19.50;50.40;;;;;;5075735;28;20033;-68
2022/04/27 11:42:01;;;;;;;2.35;0.60;;;19.50;50.60;;;;;;5075813;28;20116;-67
2022/04/27 11:44:31;;;;;;;0.95;0.65;;;19.70;50.30;;;;;;5075691;28;20037;-67
2022/04/27 11:46:57;;;;;;;2.80;0.73;;;19.80;53.10;;;;;;5075565;28;20120;-67
2022/04/27 11:49:24;;;;;;;1.38;0.85;;;20.00;50.90;;;;;;5075584;28;20429;-67
2022/04/27 11:51:50;;;;;;;0.93;0.60;;;20.00;49.50;;;;;;5075145;28;20039;-67
2022/04/27 11:54:42;;;;;;;1.30;0.70;;;20.10;48.60;;;;;;5074339;28;20039;-67
2022/04/27 11:57:12;;;;;;;2.23;0.67;;;20.10;47.40;;;;;;5075127;28;20094;-66
2022/04/27 11:59:45;;;;;;;2.45;0.65;;;20.20;49.00;;;;;;5075332;28;20496;-67
2022/04/27 12:02:11;;;;;;;1.05;0.60;;;20.30;47.80;;;;;;5075108;28;20032;-66
2022/04/27 12:04:37;;;;;;;1.42;0.70;;;20.40;46.10;;;;;;5074968;28;20033;-68
2022/04/27 12:07:14;;;;;;;1.15;0.85;;;20.40;46.40;;;;;;5074935;28;20071;-69
2022/04/27 12:09:40;;;;;;;1.27;0.60;;;20.50;46.40;;;;;;5075135;28;20036;-68
2022/04/27 12:12:11;;;;;;;0.60;0.60;;;20.40;44.50;;;;;;5075039;28;20457;-68
2022/04/27 12:14:40;;;;;;;0.75;0.60;;;20.30;45.30;;;;;;5075251;28;20553;-68
2022/04/27 12:17:06;;;;;;;1.83;0.80;;;20.20;47.60;;;;;;5074824;28;20028;-67
2022/04/27 12:19:33;;;;;;;2.22;0.70;;;20.10;48.60;;;;;;5074851;28;20102;-68
2022/04/27 12:22:15;;;;;;;0.65;0.60;;;20.00;48.30;;;;;;5074592;28;20058;-68
2022/04/27 12:24:46;;;;;;;3.92;0.65;;;19.90;47.20;;;;;;5074491;28;20111;-67
2022/04/27 12:27:19;;;;;;;0.75;0.60;;;19.80;47.90;;;;;;5074323;28;20037;-68
2022/04/27 12:29:46;;;;;;;2.25;0.70;;;19.70;49.70;;;;;;5074012;28;20108;-69
2022/04/27 12:32:11;;;;;;;1.08;0.75;;;19.70;49.60;;;;;;5074402;28;20564;-68
2022/04/27 12:37:30;;;;;;;1.90;0.80;;;19.70;51.40;;;;;;5074546;28;20448;-68
2022/04/27 12:39:56;;;;;;;1.30;0.75;;;19.70;50.70;;;;;;5074889;28;20376;-68
2022/04/27 12:42:21;;;;;;;2.88;0.80;;;19.60;48.80;;;;;;5074492;28;20117;-73
2022/04/27 12:44:47;;;;;;;0.75;0.60;;;19.70;49.30;;;;;;5074136;28;20032;-69
2022/04/27 12:47:16;;;;;;;0.70;0.50;;;19.80;49.60;;;;;;5073982;28;20040;-68
2022/04/27 12:49:45;;;;;;;1.48;0.68;;;20.00;49.80;;;;;;5074274;28;20441;-67
2022/04/27 12:52:23;;;;;;;1.40;0.68;;;20.10;48.40;;;;;;5074378;28;20045;-68
2022/04/27 12:54:52;;;;;;;5.22;0.80;;;20.20;48.00;;;;;;5073922;28;20044;-68
2022/04/27 12:57:18;;;;;;;2.40;0.70;;;20.40;49.00;;;;;;5073439;28;20045;-68
2022/04/27 13:00:02;;;;;;;0.85;0.52;;;20.50;48.30;;;;;;5074235;28;20075;-73
2022/04/27 13:02:28;;;;;;;2.25;0.63;;;20.50;48.20;;;;;;5074213;28;20039;-68
2022/04/27 13:04:54;;;;;;;0.88;0.70;;;20.70;47.30;;;;;;5073779;28;20044;-67
2022/04/27 13:07:20;;;;;;;0.82;0.80;;;20.90;48.20;;;;;;5073502;28;20378;-68
2022/04/27 13:12:33;;;;;;;2.72;0.60;;;21.00;49.60;;;;;;5054204;28;20049;-68
2022/04/27 13:14:59;;;;;;;2.25;0.77;;;21.10;50.00;;;;;;5053835;28;20041;-67
2022/04/27 13:17:25;;;;;;;2.28;0.90;;;21.20;46.50;;;;;;5053621;28;20124;-68
2022/04/27 13:19:51;;;;;;;0.80;0.57;;;21.30;43.30;;;;;;5053650;28;20072;-67
2022/04/27 13:22:16;;;;;;;1.13;0.60;;;21.30;45.30;;;;;;5053648;28;20140;-66
2022/04/27 13:24:42;;;;;;;3.75;0.70;;;21.40;45.70;;;;;;5053390;28;20377;-68
2022/04/27 13:27:08;;;;;;;2.45;0.80;;;21.40;46.90;;;;;;5053686;28;20037;-67
2022/04/27 13:29:33;;;;;;;0.60;0.60;;;21.50;45.60;;;;;;5053681;28;20029;-68
2022/04/27 13:31:59;;;;;;;0.82;0.70;;;21.30;44.80;;;;;;5053450;28;20067;-69
2022/04/27 13:34:25;;;;;;;1.10;0.70;;;21.20;43.80;;;;;;5052702;28;20037;-68
2022/04/27 13:36:50;;;;;;;3.20;0.70;;;21.10;43.60;;;;;;5052919;28;20163;-67
2022/04/27 13:39:17;;;;;;;1.02;0.75;;;21.00;44.20;;;;;;5053236;28;20121;-67
2022/04/27 13:41:43;;;;;;;0.50;0.50;;;20.90;44.60;;;;;;5053408;28;20088;-67
2022/04/27 13:44:11;;;;;;;2.55;0.63;;;20.80;44.00;;;;;;5053295;28;20025;-67
2022/04/27 13:46:37;;;;;;;1.55;0.68;;;20.70;45.00;;;;;;5053180;28;20047;-67
2022/04/27 13:49:04;;;;;;;1.15;0.60;;;20.70;46.00;;;;;;5053060;28;20051;-67
2022/04/27 13:51:30;;;;;;;2.13;0.90;;;20.80;46.90;;;;;;5053233;28;20544;-68
2022/04/27 13:53:59;;;;;;;1.50;0.80;;;20.70;48.20;;;;;;5052908;28;20036;-67
2022/04/27 13:56:29;;;;;;;1.92;0.70;;;20.70;48.70;;;;;;5053212;28;20037;-68
2022/04/27 13:58:54;;;;;;;1.13;0.52;;;20.60;49.40;;;;;;5053070;28;20041;-67
2022/04/27 14:01:20;;;;;;;2.45;0.60;;;20.40;49.50;;;;;;5052552;28;20095;-72
2022/04/27 14:03:47;;;;;;;0.95;0.75;;;20.30;49.30;;;;;;5052958;28;20029;-68
2022/04/27 14:06:15;;;;;;;2.10;0.80;;;20.30;50.70;;;;;;5051567;28;20295;-67
2022/04/27 14:08:40;;;;;;;0.80;0.50;;;20.20;51.70;;;;;;5053328;28;20448;-67
2022/04/27 14:13:10;;;;;;;0.93;0.63;;;20.10;52.20;;;;;;5053103;28;20057;-67
2022/04/27 14:13:52;;;;;;;3.33;0.70;;;20.10;51.10;;;;;;5053063;28;20587;-67
2022/04/27 14:19:01;;;;;;;1.42;0.80;;;20.00;49.40;;;;;;5052312;28;20064;-67
2022/04/27 14:21:27;;;;;;;4.38;0.80;;;19.90;50.60;;;;;;5052970;28;20033;-67
2022/04/27 14:23:53;;;;;;;1.33;0.68;;;19.90;51.40;;;;;;5053069;28;20454;-67
2022/04/27 14:26:18;;;;;;;1.67;0.70;;;19.80;51.70;;;;;;5052741;28;20034;-67
2022/04/27 14:28:44;;;;;;;1.92;0.65;;;19.80;52.50;;;;;;5052861;28;20039;-67
2022/04/27 14:31:10;;;;;;;2.60;0.70;;;19.80;51.90;;;;;;5052977;28;20033;-67
2022/04/27 14:33:37;;;;;;;1.75;0.70;;;19.90;51.80;;;;;;5052901;28;20040;-67
2022/04/27 14:36:03;;;;;;;1.60;0.70;;;20.00;51.00;;;;;;5052725;28;20067;-67
2022/04/27 14:38:30;;;;;;;3.03;1.00;;;20.20;50.80;;;;;;5052656;28;20452;-72